Time;durP1;ratioP1;P1;durP2;ratioP2;P2;SDS_P1;SDS_P2;PMS_P1;PMS_P2;Temp;Humidity;BMP_temperature;BMP_pressure;BME280_temperature;BME280_humidity;BME280_pressure;Samples;Min_cycle;Max_cycle;Signal;HPM_P1;HPM_P2
2023/09/06 00:01:15;;;;;;;1.40;1.40;;;23.40;73.30;;;;;;5060322;28;43701;-65
2023/09/06 00:03:44;;;;;;;1.53;1.50;;;23.50;72.90;;;;;;5057178;28;44482;-64
2023/09/06 00:06:13;;;;;;;1.53;1.53;;;23.50;72.90;;;;;;5057349;28;43458;-65
2023/09/06 00:08:41;;;;;;;1.33;1.33;;;23.50;73.20;;;;;;5070237;28;43444;-64
2023/09/06 00:11:09;;;;;;;1.30;1.30;;;23.40;73.40;;;;;;5056460;28;43627;-67
2023/09/06 00:13:37;;;;;;;1.30;1.30;;;23.40;73.40;;;;;;5068130;28;43439;-63
2023/09/06 00:16:07;;;;;;;1.40;1.40;;;23.30;73.50;;;;;;5065160;28;43861;-64
2023/09/06 00:18:35;;;;;;;1.43;1.43;;;23.30;73.60;;;;;;5069936;28;43335;-64
2023/09/06 00:21:05;;;;;;;1.70;1.40;;;23.30;73.90;;;;;;5057297;28;43841;-65
2023/09/06 00:23:33;;;;;;;1.50;1.50;;;23.30;73.90;;;;;;5066472;28;43383;-64
2023/09/06 00:26:01;;;;;;;1.60;1.60;;;23.20;74.00;;;;;;5057952;28;43357;-65
2023/09/06 00:28:29;;;;;;;1.33;1.33;;;23.20;73.90;;;;;;5056366;28;43422;-64
2023/09/06 00:30:57;;;;;;;1.30;1.30;;;23.20;74.00;;;;;;5065605;28;45743;-64
2023/09/06 00:33:29;;;;;;;1.23;1.23;;;23.20;74.30;;;;;;5056579;28;44862;-67
2023/09/06 00:35:58;;;;;;;1.47;1.47;;;23.20;74.20;;;;;;5055403;28;43369;-66
2023/09/06 00:38:28;;;;;;;1.50;1.40;;;23.30;73.80;;;;;;5061567;28;43539;-66
2023/09/06 00:40:57;;;;;;;1.40;1.40;;;23.40;73.50;;;;;;5057088;28;45771;-64
2023/09/06 00:43:25;;;;;;;1.20;1.20;;;23.50;73.70;;;;;;5066923;28;46211;-64
2023/09/06 00:45:53;;;;;;;1.40;1.40;;;23.50;73.60;;;;;;5062380;28;44039;-64
2023/09/06 00:48:23;;;;;;;1.30;1.30;;;23.50;73.00;;;;;;5067545;28;43492;-64
2023/09/06 00:50:55;;;;;;;1.30;1.30;;;23.40;73.20;;;;;;5056752;28;44723;-65
2023/09/06 00:53:23;;;;;;;1.30;1.30;;;23.40;74.20;;;;;;5054805;28;44733;-65
2023/09/06 00:55:53;;;;;;;1.37;1.37;;;23.40;73.60;;;;;;5064357;28;43415;-65
2023/09/06 00:58:21;;;;;;;1.30;1.30;;;23.30;73.60;;;;;;5055883;28;43611;-64
2023/09/06 01:00:50;;;;;;;1.23;1.23;;;23.30;73.60;;;;;;5054546;28;43668;-69
2023/09/06 01:03:18;;;;;;;1.40;1.40;;;23.30;74.00;;;;;;5050577;28;43431;-69
2023/09/06 01:05:48;;;;;;;1.47;1.47;;;23.20;73.90;;;;;;5060698;28;43435;-71
2023/09/06 01:08:20;;;;;;;1.27;1.27;;;23.20;74.00;;;;;;5056017;28;43538;-71
2023/09/06 01:10:50;;;;;;;1.50;1.50;;;23.20;73.90;;;;;;5058540;28;43976;-74
2023/09/06 01:13:20;;;;;;;1.33;1.33;;;23.20;74.10;;;;;;5052372;28;44999;-72
2023/09/06 01:15:48;;;;;;;1.60;1.60;;;23.10;74.10;;;;;;5057867;28;43674;-72
2023/09/06 01:18:16;;;;;;;1.30;1.30;;;23.20;73.90;;;;;;5066869;28;43861;-72
2023/09/06 01:20:45;;;;;;;1.30;1.30;;;23.30;73.60;;;;;;5047804;28;45466;-72
2023/09/06 01:23:34;;;;;;;1.43;1.43;;;23.40;73.50;;;;;;5048268;28;43412;-72
2023/09/06 01:26:05;;;;;;;1.50;1.50;;;23.40;73.60;;;;;;5047624;28;43397;-71
2023/09/06 01:28:33;;;;;;;1.30;1.30;;;23.30;73.60;;;;;;5058295;28;43869;-71
2023/09/06 01:31:01;;;;;;;1.40;1.40;;;23.30;73.60;;;;;;5053602;28;45712;-70
2023/09/06 01:33:29;;;;;;;1.40;1.40;;;23.30;73.50;;;;;;5062628;28;44995;-73
2023/09/06 01:35:58;;;;;;;1.60;1.60;;;23.30;73.70;;;;;;5048037;28;43965;-70
2023/09/06 01:38:27;;;;;;;1.30;1.30;;;23.30;73.60;;;;;;5051213;28;43960;-71
2023/09/06 01:40:55;;;;;;;1.30;1.30;;;23.20;73.80;;;;;;5054504;28;43833;-71
2023/09/06 01:43:23;;;;;;;1.53;1.53;;;23.20;73.80;;;;;;5065945;28;44720;-70
2023/09/06 01:45:51;;;;;;;1.30;1.30;;;23.30;73.50;;;;;;5058909;28;43374;-71
2023/09/06 01:48:21;;;;;;;1.20;1.20;;;23.40;73.10;;;;;;5064563;28;43589;-71
2023/09/06 01:50:49;;;;;;;1.30;1.30;;;23.50;72.80;;;;;;5053176;28;45449;-71
2023/09/06 01:53:17;;;;;;;1.40;1.40;;;23.50;72.70;;;;;;5054822;28;43437;-71
2023/09/06 01:55:47;;;;;;;1.50;1.50;;;23.50;72.90;;;;;;5055226;28;43381;-71
2023/09/06 01:58:17;;;;;;;1.50;1.50;;;23.40;73.10;;;;;;5053402;28;43492;-71
2023/09/06 02:00:45;;;;;;;1.40;1.40;;;23.30;73.30;;;;;;5068596;28;45764;-70
2023/09/06 02:03:15;;;;;;;1.50;1.50;;;23.30;73.30;;;;;;5050355;28;44966;-71
2023/09/06 02:05:44;;;;;;;1.10;1.10;;;23.30;73.50;;;;;;5054038;28;43395;-71
2023/09/06 02:08:13;;;;;;;1.50;1.50;;;23.20;73.50;;;;;;5059152;28;43988;-72
2023/09/06 02:10:41;;;;;;;1.60;1.60;;;23.20;73.80;;;;;;5068148;28;45502;-70
2023/09/06 02:13:11;;;;;;;1.60;1.60;;;23.20;73.80;;;;;;5049864;28;43444;-71
2023/09/06 02:15:39;;;;;;;1.40;1.40;;;23.20;73.90;;;;;;5057262;28;43342;-64
2023/09/06 02:18:09;;;;;;;1.40;1.40;;;23.20;74.60;;;;;;5075201;28;43614;-65
2023/09/06 02:20:39;;;;;;;1.50;1.50;;;23.10;73.80;;;;;;5068524;28;43829;-67
2023/09/06 02:23:09;;;;;;;1.33;1.33;;;23.20;74.10;;;;;;5069211;28;45030;-63
2023/09/06 02:25:37;;;;;;;1.50;1.50;;;23.20;73.90;;;;;;5068689;28;43428;-68
2023/09/06 02:28:06;;;;;;;1.30;1.30;;;23.30;73.50;;;;;;5076833;28;43348;-67
2023/09/06 02:30:37;;;;;;;1.43;1.43;;;23.40;73.10;;;;;;5076530;28;45757;-67
2023/09/06 02:33:07;;;;;;;1.40;1.40;;;23.50;72.80;;;;;;5075711;28;45174;-67
2023/09/06 02:35:40;;;;;;;1.30;1.30;;;23.50;72.80;;;;;;5075971;28;43423;-69
2023/09/06 02:38:09;;;;;;;1.30;1.30;;;23.40;72.90;;;;;;5059696;28;43535;-69
2023/09/06 02:40:37;;;;;;;1.70;1.70;;;23.40;73.10;;;;;;5053902;28;43610;-69
2023/09/06 02:43:05;;;;;;;1.43;1.43;;;23.30;73.40;;;;;;5054975;28;44981;-69
2023/09/06 02:45:37;;;;;;;1.33;1.33;;;23.30;73.40;;;;;;5055408;28;43511;-69
2023/09/06 02:48:07;;;;;;;1.40;1.40;;;23.30;73.60;;;;;;5058719;28;43502;-70
2023/09/06 02:50:35;;;;;;;1.40;1.40;;;23.20;73.50;;;;;;5058454;28;45732;-70
2023/09/06 02:53:04;;;;;;;1.30;1.30;;;23.20;73.80;;;;;;5063754;28;43420;-70
2023/09/06 02:55:35;;;;;;;1.20;1.20;;;23.20;73.80;;;;;;5060719;28;43544;-70
2023/09/06 02:58:04;;;;;;;1.43;1.43;;;23.30;73.60;;;;;;5061554;28;44001;-70
2023/09/06 03:00:36;;;;;;;1.40;1.40;;;23.40;73.20;;;;;;5062740;28;47234;-70
2023/09/06 03:03:06;;;;;;;1.50;1.50;;;23.50;72.80;;;;;;5051922;28;45012;-70
2023/09/06 03:05:41;;;;;;;1.50;1.50;;;23.50;72.80;;;;;;5050878;28;43637;-70
2023/09/06 03:08:13;;;;;;;1.37;1.37;;;23.40;72.80;;;;;;5073859;28;44184;-69
2023/09/06 03:10:41;;;;;;;1.80;1.70;;;23.40;72.90;;;;;;5060396;28;44184;-70
2023/09/06 03:13:10;;;;;;;1.50;1.50;;;23.30;73.10;;;;;;5053876;28;44898;-70
2023/09/06 03:15:43;;;;;;;1.40;1.40;;;23.30;73.20;;;;;;5062718;28;43480;-70
2023/09/06 03:18:13;;;;;;;1.40;1.40;;;23.30;73.30;;;;;;5055585;28;43527;-70
2023/09/06 03:20:43;;;;;;;1.50;1.50;;;23.30;73.40;;;;;;5062801;28;43848;-70
2023/09/06 03:23:19;;;;;;;1.40;1.40;;;23.20;73.60;;;;;;5049003;28;44781;-71
2023/09/06 03:26:09;;;;;;;1.50;1.50;;;23.20;73.70;;;;;;5059718;28;43410;-66
2023/09/06 03:28:40;;;;;;;1.60;1.60;;;23.20;73.80;;;;;;5057176;28;43458;-64
2023/09/06 03:31:13;;;;;;;1.57;1.57;;;23.20;73.80;;;;;;5062571;28;46029;-65
2023/09/06 03:33:43;;;;;;;1.27;1.27;;;23.10;74.00;;;;;;5055690;28;44464;-64
2023/09/06 03:36:12;;;;;;;1.40;1.40;;;23.10;74.60;;;;;;5056314;28;43854;-65
2023/09/06 03:38:40;;;;;;;1.40;1.40;;;23.20;73.70;;;;;;5067338;28;43579;-65
2023/09/06 03:41:11;;;;;;;1.57;1.57;;;23.30;73.20;;;;;;5062375;28;44145;-64
2023/09/06 03:43:39;;;;;;;1.50;1.50;;;23.40;72.90;;;;;;5056296;28;44397;-67
2023/09/06 03:46:09;;;;;;;1.77;1.57;;;23.50;72.60;;;;;;5065617;28;44058;-66
2023/09/06 03:48:38;;;;;;;1.50;1.40;;;23.50;72.60;;;;;;5060693;28;43408;-65
2023/09/06 03:51:08;;;;;;;1.40;1.40;;;23.40;73.10;;;;;;5055060;28;45684;-65
2023/09/06 03:53:37;;;;;;;1.50;1.50;;;23.40;73.10;;;;;;5070742;28;44442;-65
2023/09/06 03:56:06;;;;;;;1.57;1.57;;;23.30;73.00;;;;;;5058420;28;43502;-65
2023/09/06 03:58:40;;;;;;;1.60;1.60;;;23.30;73.30;;;;;;5062730;28;43612;-65
2023/09/06 04:01:11;;;;;;;1.80;1.70;;;23.30;73.50;;;;;;5056226;28;44785;-65
2023/09/06 04:03:41;;;;;;;1.90;1.80;;;23.20;73.50;;;;;;5068261;28;43844;-65
2023/09/06 04:06:13;;;;;;;2.43;2.27;;;23.20;73.50;;;;;;5058345;28;43437;-65
2023/09/06 04:08:42;;;;;;;2.50;2.40;;;23.20;73.50;;;;;;5059312;28;43400;-65
2023/09/06 04:11:11;;;;;;;2.47;2.33;;;23.20;73.80;;;;;;5060665;28;45988;-65
2023/09/06 04:13:43;;;;;;;2.90;2.47;;;23.20;73.90;;;;;;5063832;28;44878;-66
2023/09/06 04:16:14;;;;;;;2.60;2.40;;;23.20;73.80;;;;;;5064501;28;43411;-65
2023/09/06 04:18:43;;;;;;;2.90;2.60;;;23.20;73.50;;;;;;5058167;28;43422;-65
2023/09/06 04:21:13;;;;;;;3.17;2.87;;;23.30;73.20;;;;;;5059220;28;45700;-67
2023/09/06 04:23:44;;;;;;;4.80;3.03;;;23.40;72.80;;;;;;5067779;28;44688;-65
2023/09/06 04:26:16;;;;;;;3.73;2.70;;;23.50;72.50;;;;;;5057139;28;43515;-65
2023/09/06 04:28:44;;;;;;;3.97;3.00;;;23.50;72.50;;;;;;5071285;28;43505;-65
2023/09/06 04:31:17;;;;;;;3.37;3.07;;;23.50;72.80;;;;;;5058278;28;44186;-66
2023/09/06 04:33:46;;;;;;;3.87;3.10;;;23.40;73.00;;;;;;5054863;28;43470;-66
2023/09/06 04:36:23;;;;;;;3.47;3.07;;;23.40;73.80;;;;;;5069442;28;43473;-69
2023/09/06 04:38:57;;;;;;;7.33;3.90;;;23.30;73.90;;;;;;5056621;28;43890;-70
2023/09/06 04:41:26;;;;;;;8.40;4.17;;;23.30;72.90;;;;;;5060172;28;45510;-70
2023/09/06 04:43:59;;;;;;;9.77;4.00;;;23.30;72.60;;;;;;5059211;28;43463;-69
2023/09/06 04:46:29;;;;;;;5.40;4.27;;;23.20;73.50;;;;;;5059381;28;44073;-69
2023/09/06 04:48:57;;;;;;;4.53;3.57;;;23.20;73.50;;;;;;5059361;28;43941;-69
2023/09/06 04:51:27;;;;;;;4.67;3.47;;;23.20;72.80;;;;;;5063837;28;45525;-69
2023/09/06 04:53:57;;;;;;;5.57;4.20;;;23.20;73.10;;;;;;5057942;28;44970;-69
2023/09/06 04:56:31;;;;;;;6.73;4.30;;;23.20;73.30;;;;;;5054008;28;43459;-70
2023/09/06 04:59:00;;;;;;;9.27;4.50;;;23.20;72.90;;;;;;5057814;28;43528;-69
2023/09/06 05:01:28;;;;;;;6.57;4.07;;;23.20;72.90;;;;;;5053168;28;45287;-70
2023/09/06 05:03:57;;;;;;;7.00;4.60;;;23.30;72.60;;;;;;5052522;28;45011;-69
2023/09/06 05:06:28;;;;;;;4.83;4.30;;;23.40;72.20;;;;;;5052878;28;43427;-69
2023/09/06 05:08:56;;;;;;;5.13;4.03;;;23.50;72.10;;;;;;5059934;28;43597;-70
2023/09/06 05:11:26;;;;;;;5.63;4.17;;;23.50;72.20;;;;;;5066111;28;43930;-70
2023/09/06 05:13:55;;;;;;;7.00;4.57;;;23.40;72.40;;;;;;5053143;28;44736;-70
2023/09/06 05:16:26;;;;;;;5.63;3.97;;;23.30;72.60;;;;;;5066263;28;43419;-76
2023/09/06 05:18:55;;;;;;;7.50;4.10;;;23.30;72.60;;;;;;5052613;28;43866;-69
2023/09/06 05:21:28;;;;;;;7.07;3.93;;;23.30;72.70;;;;;;5046704;28;45721;-69
2023/09/06 05:23:56;;;;;;;5.30;3.93;;;23.20;72.80;;;;;;5053884;28;43501;-69
2023/09/06 05:26:24;;;;;;;7.47;4.30;;;23.20;73.00;;;;;;5053425;28;43391;-69
2023/09/06 05:28:52;;;;;;;4.10;3.80;;;23.20;72.90;;;;;;5047159;28;43558;-76
2023/09/06 05:31:20;;;;;;;4.37;3.97;;;23.20;72.90;;;;;;5046985;28;46134;-71
2023/09/06 05:33:50;;;;;;;4.63;3.93;;;23.20;73.00;;;;;;5059107;28;43472;-70
2023/09/06 05:36:21;;;;;;;4.97;3.83;;;23.20;73.10;;;;;;5063485;28;43965;-71
2023/09/06 05:38:51;;;;;;;5.27;3.83;;;23.10;72.70;;;;;;5053447;28;43566;-69
2023/09/06 05:41:22;;;;;;;4.17;3.70;;;23.10;72.50;;;;;;5055353;28;46136;-69
2023/09/06 05:43:50;;;;;;;4.70;3.83;;;23.30;72.30;;;;;;5050321;28;44971;-69
2023/09/06 05:46:18;;;;;;;6.03;3.97;;;23.40;71.80;;;;;;5069142;28;43448;-69
2023/09/06 05:49:05;;;;;;;5.00;4.00;;;23.40;71.50;;;;;;5058595;28;43424;-69
2023/09/06 05:51:37;;;;;;;3.80;3.50;;;23.40;71.60;;;;;;5059680;28;43963;-68
2023/09/06 05:54:08;;;;;;;3.80;3.50;;;23.30;71.90;;;;;;5051530;28;44828;-70
2023/09/06 05:56:39;;;;;;;3.73;3.43;;;23.30;72.00;;;;;;5050308;28;43963;-68
2023/09/06 05:59:07;;;;;;;3.77;3.40;;;23.30;72.00;;;;;;5060888;28;43577;-69
2023/09/06 06:01:36;;;;;;;4.60;3.57;;;23.20;71.90;;;;;;5053952;28;45682;-68
2023/09/06 06:04:05;;;;;;;5.43;3.93;;;23.20;72.40;;;;;;5054817;28;44698;-69
2023/09/06 06:06:34;;;;;;;4.20;3.47;;;23.20;72.60;;;;;;5060888;28;43985;-69
2023/09/06 06:09:03;;;;;;;3.50;3.30;;;23.10;72.30;;;;;;5062659;28;43393;-69
2023/09/06 06:11:33;;;;;;;3.87;3.60;;;23.10;72.20;;;;;;5051183;28;43905;-69
2023/09/06 06:14:01;;;;;;;4.13;3.73;;;23.10;72.50;;;;;;5054587;28;43362;-68
2023/09/06 06:16:38;;;;;;;4.10;3.80;;;23.10;72.70;;;;;;5054310;28;43394;-69
2023/09/06 06:19:07;;;;;;;3.97;3.50;;;23.10;72.40;;;;;;5050247;28;43619;-69
2023/09/06 06:21:35;;;;;;;3.80;3.50;;;23.10;72.10;;;;;;5050930;28;43596;-70
2023/09/06 06:24:03;;;;;;;3.83;3.50;;;23.10;71.70;;;;;;5052591;28;43952;-69
2023/09/06 06:26:32;;;;;;;4.20;3.60;;;23.20;71.40;;;;;;5053666;28;43436;-69
2023/09/06 06:29:01;;;;;;;3.30;3.10;;;23.30;71.00;;;;;;5054773;28;43420;-70
2023/09/06 06:31:32;;;;;;;3.77;3.47;;;23.30;70.80;;;;;;5059733;28;43614;-69
2023/09/06 06:34:03;;;;;;;3.43;3.13;;;23.30;71.40;;;;;;5060850;28;43553;-69
2023/09/06 06:36:31;;;;;;;3.37;3.20;;;23.30;71.70;;;;;;5050898;28;43439;-70
2023/09/06 06:39:00;;;;;;;3.50;3.33;;;23.20;71.40;;;;;;5052631;28;43567;-69
2023/09/06 06:41:28;;;;;;;3.37;3.20;;;23.20;71.30;;;;;;5049726;28;45427;-70
2023/09/06 06:43:58;;;;;;;3.30;3.10;;;23.20;71.60;;;;;;5068661;28;43501;-69
2023/09/06 06:46:29;;;;;;;3.60;3.30;;;23.10;72.10;;;;;;5060478;28;43399;-69
2023/09/06 06:48:57;;;;;;;3.13;2.93;;;23.10;71.90;;;;;;5062673;28;43472;-70
2023/09/06 06:51:26;;;;;;;3.67;3.47;;;23.10;71.70;;;;;;5054900;28;43587;-69
2023/09/06 06:53:54;;;;;;;3.20;3.00;;;23.10;71.80;;;;;;5061029;28;43413;-70
2023/09/06 06:56:22;;;;;;;3.97;3.77;;;23.00;72.10;;;;;;5057024;28;43395;-64
2023/09/06 06:58:50;;;;;;;3.30;3.20;;;23.00;72.20;;;;;;5074531;28;44190;-64
2023/09/06 07:01:20;;;;;;;3.63;3.27;;;23.00;71.80;;;;;;5068942;28;44211;-67
2023/09/06 07:03:48;;;;;;;3.60;3.40;;;23.00;71.50;;;;;;5066128;28;43482;-64
2023/09/06 07:06:16;;;;;;;3.90;3.60;;;23.10;71.20;;;;;;5057364;28;43400;-64
2023/09/06 07:08:44;;;;;;;3.77;3.57;;;23.20;70.70;;;;;;5063235;28;43587;-64
2023/09/06 07:11:12;;;;;;;3.30;3.10;;;23.30;71.30;;;;;;5071081;28;45192;-64
2023/09/06 07:13:42;;;;;;;3.50;3.30;;;23.30;70.60;;;;;;5057631;28;45197;-65
2023/09/06 07:16:10;;;;;;;3.23;3.03;;;23.30;71.10;;;;;;5060755;28;43856;-65
2023/09/06 07:18:40;;;;;;;3.27;3.10;;;23.20;71.30;;;;;;5058188;28;43612;-65
2023/09/06 07:21:08;;;;;;;3.53;3.33;;;23.10;70.90;;;;;;5059085;28;43904;-64
2023/09/06 07:23:36;;;;;;;3.40;3.30;;;23.10;70.90;;;;;;5057740;28;43453;-66
2023/09/06 07:26:05;;;;;;;3.27;3.00;;;23.10;71.30;;;;;;5058053;28;43445;-65
2023/09/06 07:28:40;;;;;;;3.30;3.10;;;23.10;71.60;;;;;;5059302;28;43559;-65
2023/09/06 07:31:08;;;;;;;3.60;3.30;;;23.00;71.30;;;;;;5057785;28;43620;-64
2023/09/06 07:33:36;;;;;;;3.10;2.90;;;23.00;71.30;;;;;;5057958;28;44797;-65
2023/09/06 07:36:06;;;;;;;3.77;3.57;;;23.00;70.90;;;;;;5057840;28;43455;-64
2023/09/06 07:38:34;;;;;;;3.90;3.67;;;23.20;70.60;;;;;;5074540;28;43377;-64
2023/09/06 07:41:03;;;;;;;3.63;3.33;;;23.30;70.30;;;;;;5056647;28;45473;-64
2023/09/06 07:43:31;;;;;;;3.03;2.93;;;23.30;70.10;;;;;;5061783;28;44688;-64
2023/09/06 07:45:59;;;;;;;3.13;3.03;;;23.20;70.30;;;;;;5068204;28;43487;-64
2023/09/06 07:48:28;;;;;;;3.07;2.97;;;23.20;70.80;;;;;;5065813;28;43447;-66
2023/09/06 07:50:58;;;;;;;3.20;3.10;;;23.10;70.60;;;;;;5075719;28;43590;-67
2023/09/06 07:53:27;;;;;;;3.27;3.17;;;23.10;70.70;;;;;;5056905;28;44610;-66
2023/09/06 07:55:55;;;;;;;3.70;3.53;;;23.10;70.90;;;;;;5060202;28;43475;-65
2023/09/06 07:58:25;;;;;;;3.30;3.10;;;23.10;71.20;;;;;;5062549;28;43407;-66
2023/09/06 08:00:57;;;;;;;3.00;2.90;;;23.00;71.30;;;;;;5061230;28;43840;-65
2023/09/06 08:03:44;;;;;;;3.40;3.20;;;23.00;71.20;;;;;;5058233;28;44650;-66
2023/09/06 08:06:13;;;;;;;4.00;3.83;;;23.10;71.00;;;;;;5053547;28;43452;-75
2023/09/06 08:08:44;;;;;;;3.20;3.10;;;23.10;70.60;;;;;;5053465;28;43965;-69
2023/09/06 08:11:12;;;;;;;3.13;3.03;;;23.10;70.60;;;;;;5059762;28;43849;-68
2023/09/06 08:13:41;;;;;;;3.47;3.20;;;23.10;71.60;;;;;;5064498;28;44772;-69
2023/09/06 08:16:10;;;;;;;3.20;3.10;;;23.10;70.80;;;;;;5052320;28;43988;-69
2023/09/06 08:18:40;;;;;;;3.30;3.20;;;23.10;70.70;;;;;;5060749;28;43431;-69
2023/09/06 08:21:08;;;;;;;3.30;3.20;;;23.10;70.90;;;;;;5054324;28;44473;-69
2023/09/06 08:23:37;;;;;;;3.23;3.03;;;23.10;71.40;;;;;;5056623;28;44098;-69
2023/09/06 08:26:06;;;;;;;3.40;3.30;;;23.10;72.00;;;;;;5049179;28;43421;-69
2023/09/06 08:28:35;;;;;;;3.43;3.20;;;23.00;71.00;;;;;;5055019;28;43447;-69
2023/09/06 08:31:04;;;;;;;3.60;3.40;;;23.00;71.30;;;;;;5049103;28;44128;-69
2023/09/06 08:33:32;;;;;;;3.30;3.20;;;23.00;71.60;;;;;;5056226;28;43553;-69
2023/09/06 08:36:00;;;;;;;3.13;2.83;;;23.00;71.70;;;;;;5059646;28;43712;-70
2023/09/06 08:38:28;;;;;;;3.37;3.27;;;23.00;71.30;;;;;;5056760;28;43523;-70
2023/09/06 08:40:57;;;;;;;3.37;3.17;;;23.00;71.20;;;;;;5056601;28;44964;-69
2023/09/06 08:43:27;;;;;;;3.30;3.20;;;23.10;70.80;;;;;;5051990;28;43478;-69
2023/09/06 08:45:55;;;;;;;3.20;3.10;;;23.20;70.40;;;;;;5061190;28;43410;-69
2023/09/06 08:48:27;;;;;;;3.00;2.90;;;23.20;70.10;;;;;;5053736;28;44069;-69
2023/09/06 08:50:56;;;;;;;3.43;3.30;;;23.20;70.30;;;;;;5050250;28;44568;-68
2023/09/06 08:53:24;;;;;;;3.00;2.90;;;23.20;70.90;;;;;;5046800;28;43440;-68
2023/09/06 08:55:52;;;;;;;2.97;2.87;;;23.10;70.90;;;;;;5057135;28;43445;-69
2023/09/06 08:58:20;;;;;;;3.07;2.90;;;23.10;70.80;;;;;;5049573;28;43461;-69
2023/09/06 09:00:49;;;;;;;3.40;3.30;;;23.10;70.80;;;;;;5054609;28;43602;-69
2023/09/06 09:03:17;;;;;;;3.00;2.90;;;23.10;72.20;;;;;;5049889;28;43685;-69
2023/09/06 09:05:46;;;;;;;3.17;3.07;;;23.00;71.60;;;;;;5048544;28;43476;-69
2023/09/06 09:08:14;;;;;;;3.30;3.10;;;23.00;71.40;;;;;;5046991;28;43444;-69
2023/09/06 09:10:42;;;;;;;3.00;2.90;;;23.00;71.30;;;;;;5075534;28;47027;-69
2023/09/06 09:13:11;;;;;;;2.73;2.63;;;23.00;71.60;;;;;;5052216;28;44669;-74
2023/09/06 09:15:39;;;;;;;3.00;2.90;;;23.00;71.90;;;;;;5054929;28;43422;-71
2023/09/06 09:18:12;;;;;;;3.30;3.10;;;22.90;71.90;;;;;;5059599;28;43521;-71
2023/09/06 09:20:41;;;;;;;2.67;2.67;;;22.90;71.50;;;;;;5049262;28;43916;-71
2023/09/06 09:23:13;;;;;;;3.30;3.20;;;23.00;71.30;;;;;;5047557;28;45071;-71
2023/09/06 09:25:48;;;;;;;3.07;2.97;;;23.10;71.10;;;;;;5053635;28;43482;-71
2023/09/06 09:28:17;;;;;;;3.43;3.13;;;23.20;70.60;;;;;;5047607;28;43982;-72
2023/09/06 09:30:46;;;;;;;3.00;2.90;;;23.30;70.40;;;;;;5063278;28;43849;-72
2023/09/06 09:33:16;;;;;;;2.97;2.83;;;23.30;70.40;;;;;;5049621;28;43928;-72
2023/09/06 09:35:44;;;;;;;2.73;2.73;;;23.20;70.90;;;;;;5051808;28;43467;-72
2023/09/06 09:38:13;;;;;;;2.80;2.70;;;23.20;71.20;;;;;;5060163;28;43449;-72
2023/09/06 09:40:41;;;;;;;2.67;2.57;;;23.20;71.10;;;;;;5057377;28;43619;-72
2023/09/06 09:43:20;;;;;;;3.17;3.07;;;23.10;71.20;;;;;;5047114;28;44701;-72
2023/09/06 09:45:48;;;;;;;2.80;2.70;;;23.10;71.60;;;;;;5059750;28;43366;-71
2023/09/06 09:48:18;;;;;;;3.00;2.90;;;23.10;71.80;;;;;;5050160;28;43365;-70
2023/09/06 09:50:46;;;;;;;2.73;2.73;;;23.00;71.70;;;;;;5046705;28;45024;-71
2023/09/06 09:53:15;;;;;;;2.67;2.57;;;23.00;71.60;;;;;;5060545;28;43390;-71
2023/09/06 09:55:50;;;;;;;2.90;2.80;;;23.00;72.00;;;;;;5050829;28;43410;-71
2023/09/06 09:58:18;;;;;;;2.90;2.80;;;23.00;72.20;;;;;;5059612;28;43995;-71
2023/09/06 10:00:46;;;;;;;3.20;3.10;;;23.00;72.20;;;;;;5067323;28;43965;-71
2023/09/06 10:03:14;;;;;;;2.97;2.87;;;23.00;72.00;;;;;;5054231;28;43445;-70
2023/09/06 10:05:45;;;;;;;2.60;2.60;;;23.00;71.70;;;;;;5047141;28;43982;-70
2023/09/06 10:08:14;;;;;;;2.97;2.87;;;23.10;72.10;;;;;;5048601;28;43437;-71
2023/09/06 10:10:42;;;;;;;2.77;2.67;;;23.30;71.00;;;;;;5065464;28;46058;-72
2023/09/06 10:13:10;;;;;;;2.83;2.73;;;23.30;70.60;;;;;;5047074;28;43937;-71
2023/09/06 10:15:38;;;;;;;2.60;2.60;;;23.30;70.80;;;;;;5059887;28;43373;-71
2023/09/06 10:18:07;;;;;;;2.77;2.77;;;23.30;71.30;;;;;;5053899;28;43944;-71
2023/09/06 10:20:35;;;;;;;3.23;3.13;;;23.20;71.50;;;;;;5048987;28;43831;-71
2023/09/06 10:23:06;;;;;;;3.00;2.90;;;23.20;71.20;;;;;;5052059;28;43375;-71
2023/09/06 10:25:39;;;;;;;2.93;2.83;;;23.20;71.50;;;;;;5063830;28;43428;-65
2023/09/06 10:28:08;;;;;;;2.70;2.70;;;23.10;71.90;;;;;;5065629;28;43367;-65
2023/09/06 10:30:43;;;;;;;2.70;2.70;;;23.10;72.10;;;;;;5063738;28;43715;-64
2023/09/06 10:33:12;;;;;;;2.80;2.80;;;23.10;72.00;;;;;;5068617;28;44531;-65
2023/09/06 10:35:43;;;;;;;3.00;2.90;;;23.10;71.80;;;;;;5064745;28;43384;-64
2023/09/06 10:38:14;;;;;;;2.60;2.57;;;23.10;72.20;;;;;;5078835;28;43425;-65
2023/09/06 10:41:10;;;;;;;2.80;2.70;;;23.10;72.40;;;;;;5066207;28;43888;-64
2023/09/06 10:44:06;;;;;;;3.00;2.90;;;23.00;72.30;;;;;;5062244;28;44089;-65
2023/09/06 10:46:34;;;;;;;2.70;2.60;;;23.00;72.00;;;;;;5065549;28;43492;-64
2023/09/06 10:49:16;;;;;;;3.00;2.90;;;23.10;71.60;;;;;;5058069;28;43541;-64
2023/09/06 10:51:59;;;;;;;2.90;2.80;;;23.20;71.40;;;;;;5071015;28;43613;-66
2023/09/06 10:54:35;;;;;;;3.00;2.90;;;23.30;71.00;;;;;;5061539;28;45135;-65
2023/09/06 10:57:05;;;;;;;2.63;2.63;;;23.30;71.10;;;;;;5073074;28;43446;-65
2023/09/06 10:59:37;;;;;;;3.20;3.00;;;23.30;71.70;;;;;;5066259;28;43445;-64
2023/09/06 11:02:09;;;;;;;2.80;2.70;;;23.20;71.80;;;;;;5058238;28;43845;-64
2023/09/06 11:04:39;;;;;;;2.63;2.63;;;23.20;71.60;;;;;;5058411;28;43827;-64
2023/09/06 11:07:10;;;;;;;3.00;2.90;;;23.20;71.80;;;;;;5072240;28;44015;-65
2023/09/06 11:09:43;;;;;;;2.90;2.80;;;23.20;72.20;;;;;;5070049;28;43427;-64
2023/09/06 11:12:12;;;;;;;2.40;2.40;;;23.10;72.20;;;;;;5058074;28;43679;-64
2023/09/06 11:14:40;;;;;;;3.03;2.93;;;23.10;72.30;;;;;;5058413;28;43388;-64
2023/09/06 11:17:08;;;;;;;3.07;2.97;;;23.10;72.00;;;;;;5067039;28;43477;-65
2023/09/06 11:19:37;;;;;;;2.70;2.60;;;23.10;71.70;;;;;;5057976;28;43407;-66
2023/09/06 11:22:09;;;;;;;2.93;2.83;;;23.30;71.60;;;;;;5060251;28;43607;-64
2023/09/06 11:24:38;;;;;;;2.80;2.70;;;23.30;71.20;;;;;;5069077;28;44833;-66
2023/09/06 11:27:21;;;;;;;2.93;2.83;;;23.40;71.50;;;;;;5062649;28;43448;-65
2023/09/06 11:29:50;;;;;;;2.60;2.60;;;23.30;71.60;;;;;;5071365;28;43419;-65
2023/09/06 11:32:18;;;;;;;2.67;2.57;;;23.30;72.00;;;;;;5062687;28;44023;-66
2023/09/06 11:34:46;;;;;;;2.70;2.70;;;23.20;71.80;;;;;;5068421;28;43539;-66
2023/09/06 11:37:15;;;;;;;2.70;2.70;;;23.20;72.00;;;;;;5078770;27;43403;-68
2023/09/06 11:39:43;;;;;;;2.60;2.60;;;23.20;72.30;;;;;;5091715;27;43749;-69
2023/09/06 11:42:13;;;;;;;2.87;2.77;;;23.10;72.40;;;;;;5090657;27;45952;-68
2023/09/06 11:44:47;;;;;;;2.70;2.70;;;23.10;72.50;;;;;;5075003;28;44180;-67
2023/09/06 11:47:16;;;;;;;2.60;2.60;;;23.10;72.40;;;;;;5081673;28;43487;-67
2023/09/06 11:49:46;;;;;;;2.60;2.60;;;23.10;72.60;;;;;;5075401;28;43523;-68
2023/09/06 11:52:16;;;;;;;2.80;2.60;;;23.10;72.70;;;;;;5079673;28;44160;-68
2023/09/06 11:54:45;;;;;;;2.40;2.40;;;23.10;72.80;;;;;;5076950;28;43474;-69
2023/09/06 11:57:23;;;;;;;2.67;2.57;;;23.00;72.70;;;;;;5074378;27;43451;-67
2023/09/06 11:59:57;;;;;;;2.50;2.50;;;23.10;72.60;;;;;;5078759;28;43555;-68
2023/09/06 12:02:27;;;;;;;2.43;2.43;;;23.10;72.20;;;;;;5088054;27;43862;-67
2023/09/06 12:05:00;;;;;;;2.70;2.70;;;23.20;71.90;;;;;;5079815;28;45032;-68
2023/09/06 12:07:28;;;;;;;2.63;2.63;;;23.30;72.50;;;;;;5081003;27;43388;-68
2023/09/06 12:10:00;;;;;;;2.70;2.60;;;23.30;72.30;;;;;;5075541;28;43379;-66
2023/09/06 12:12:28;;;;;;;2.93;2.83;;;23.30;71.80;;;;;;5074640;28;43823;-69
2023/09/06 12:14:57;;;;;;;2.70;2.70;;;23.30;72.10;;;;;;5074589;28;43312;-68
2023/09/06 12:17:26;;;;;;;3.00;2.90;;;23.20;72.00;;;;;;5085074;27;43424;-67
2023/09/06 12:19:59;;;;;;;2.87;2.83;;;23.20;72.20;;;;;;5085598;27;43445;-67
2023/09/06 12:22:27;;;;;;;2.80;2.70;;;23.20;72.50;;;;;;5090679;27;45679;-67
2023/09/06 12:24:55;;;;;;;2.40;2.40;;;23.20;72.60;;;;;;5078821;28;43430;-68
2023/09/06 12:27:25;;;;;;;2.57;2.57;;;23.10;72.60;;;;;;5078407;27;43395;-67
2023/09/06 12:29:53;;;;;;;2.67;2.67;;;23.10;72.50;;;;;;5075061;27;43393;-67
2023/09/06 12:32:23;;;;;;;2.60;2.50;;;23.10;72.80;;;;;;5089042;27;45749;-67
2023/09/06 12:34:52;;;;;;;2.60;2.60;;;23.10;72.90;;;;;;5080339;27;45031;-67
2023/09/06 12:37:20;;;;;;;2.50;2.50;;;23.00;72.80;;;;;;5087235;27;43388;-67
2023/09/06 12:39:48;;;;;;;2.60;2.50;;;23.00;72.70;;;;;;5090550;27;43411;-66
2023/09/06 12:42:17;;;;;;;2.50;2.50;;;23.10;72.50;;;;;;5080604;27;43688;-67
2023/09/06 12:44:45;;;;;;;2.30;2.30;;;23.20;72.20;;;;;;5076927;28;43431;-67
2023/09/06 12:47:16;;;;;;;2.33;2.33;;;23.30;71.80;;;;;;5057442;28;43499;-69
2023/09/06 12:49:45;;;;;;;2.97;2.77;;;23.30;71.70;;;;;;5057764;28;43460;-69
2023/09/06 12:52:19;;;;;;;2.27;2.27;;;23.30;72.10;;;;;;5047353;28;45814;-69
2023/09/06 12:54:48;;;;;;;2.83;2.83;;;23.30;72.30;;;;;;5055535;28;43471;-70
2023/09/06 12:57:17;;;;;;;2.40;2.30;;;23.20;72.30;;;;;;5049935;28;43538;-70
2023/09/06 12:59:45;;;;;;;2.53;2.53;;;23.20;72.40;;;;;;5051652;28;43585;-69
2023/09/06 13:02:13;;;;;;;2.50;2.50;;;23.20;72.60;;;;;;5050454;28;43619;-69